Garcia, Colorado
Current Conditions -  °F | °C
As of 8:52 PM on Wednesday 28 Jan 2015 (Local Time) from KALS Reporting Station
Clear Clear  
Wind Chill: 22°   Ceiling: Unl
Heat Index: 30°   Visibility: 10mi
Dew Point: 20°   Wind: 8mph
Humidity: 66%   Direction: 330°NNW
Pressure: 30.29"   Gusts: NA
Location:  37°N, 105.54°W
Report Text: KALS 290352Z AUTO 33007KT 10SM CLR M01/M07 A3029 RMK AO2 SLP263 T10111067
Loading
Personal Weather Stations






























Interactive Weather Map New forecast layout! Learn more

10-Day Weather Forecast

Advertisements
Track Severe Weather on mobile